sensor_id;sensor_type;location;lat;lon;timestamp;P1;durP1;ratioP1;P2;durP2;ratioP2
16957;SDS011;8595;52.542;11.974;2023-09-30T00:02:20;12.73;;;4.00;;
16957;SDS011;8595;52.542;11.974;2023-09-30T00:04:48;15.35;;;4.30;;
16957;SDS011;8595;52.542;11.974;2023-09-30T00:07:15;19.90;;;4.05;;
16957;SDS011;8595;52.542;11.974;2023-09-30T00:09:42;10.80;;;4.13;;
16957;SDS011;8595;52.542;11.974;2023-09-30T00:12:09;10.95;;;3.92;;
16957;SDS011;8595;52.542;11.974;2023-09-30T00:14:36;14.98;;;4.38;;
16957;SDS011;8595;52.542;11.974;2023-09-30T00:17:09;9.90;;;3.72;;
16957;SDS011;8595;52.542;11.974;2023-09-30T00:19:35;12.82;;;4.55;;
16957;SDS011;8595;52.542;11.974;2023-09-30T00:22:04;12.77;;;3.40;;
16957;SDS011;8595;52.542;11.974;2023-09-30T00:24:30;15.27;;;4.45;;
16957;SDS011;8595;52.542;11.974;2023-09-30T00:26:57;10.38;;;3.92;;
16957;SDS011;8595;52.542;11.974;2023-09-30T00:29:24;14.45;;;4.28;;
16957;SDS011;8595;52.542;11.974;2023-09-30T00:31:51;14.68;;;4.28;;
16957;SDS011;8595;52.542;11.974;2023-09-30T00:34:19;12.93;;;4.22;;
16957;SDS011;8595;52.542;11.974;2023-09-30T00:36:46;10.05;;;3.65;;
16957;SDS011;8595;52.542;11.974;2023-09-30T00:39:14;12.80;;;4.07;;
16957;SDS011;8595;52.542;11.974;2023-09-30T00:41:41;15.77;;;4.90;;
16957;SDS011;8595;52.542;11.974;2023-09-30T00:44:08;11.05;;;4.07;;
16957;SDS011;8595;52.542;11.974;2023-09-30T00:46:35;17.13;;;4.15;;
16957;SDS011;8595;52.542;11.974;2023-09-30T00:49:03;12.32;;;4.07;;
16957;SDS011;8595;52.542;11.974;2023-09-30T00:51:30;12.73;;;4.00;;
16957;SDS011;8595;52.542;11.974;2023-09-30T00:53:59;10.40;;;4.15;;
16957;SDS011;8595;52.542;11.974;2023-09-30T00:56:29;10.35;;;4.07;;
16957;SDS011;8595;52.542;11.974;2023-09-30T00:58:56;14.43;;;3.83;;
16957;SDS011;8595;52.542;11.974;2023-09-30T01:01:24;12.82;;;3.92;;
16957;SDS011;8595;52.542;11.974;2023-09-30T01:03:51;10.77;;;4.47;;
16957;SDS011;8595;52.542;11.974;2023-09-30T01:06:17;10.00;;;4.72;;
16957;SDS011;8595;52.542;11.974;2023-09-30T01:08:44;11.23;;;4.05;;
16957;SDS011;8595;52.542;11.974;2023-09-30T01:11:11;14.20;;;4.88;;
16957;SDS011;8595;52.542;11.974;2023-09-30T01:13:40;10.68;;;3.72;;
16957;SDS011;8595;52.542;11.974;2023-09-30T01:16:08;15.43;;;4.28;;
16957;SDS011;8595;52.542;11.974;2023-09-30T01:18:36;12.38;;;4.45;;
16957;SDS011;8595;52.542;11.974;2023-09-30T01:21:04;13.48;;;4.20;;
16957;SDS011;8595;52.542;11.974;2023-09-30T01:23:33;13.23;;;3.92;;
16957;SDS011;8595;52.542;11.974;2023-09-30T01:26:01;12.45;;;4.13;;
16957;SDS011;8595;52.542;11.974;2023-09-30T01:28:30;11.85;;;4.35;;
16957;SDS011;8595;52.542;11.974;2023-09-30T01:30:57;14.82;;;4.25;;
16957;SDS011;8595;52.542;11.974;2023-09-30T01:33:24;8.60;;;3.72;;
16957;SDS011;8595;52.542;11.974;2023-09-30T01:35:51;17.75;;;4.93;;
16957;SDS011;8595;52.542;11.974;2023-09-30T01:38:18;18.92;;;5.03;;
16957;SDS011;8595;52.542;11.974;2023-09-30T01:40:46;12.65;;;4.15;;
16957;SDS011;8595;52.542;11.974;2023-09-30T01:43:13;14.35;;;4.30;;
16957;SDS011;8595;52.542;11.974;2023-09-30T01:45:41;15.82;;;5.78;;
16957;SDS011;8595;52.542;11.974;2023-09-30T01:48:08;15.05;;;4.75;;
16957;SDS011;8595;52.542;11.974;2023-09-30T01:50:36;9.30;;;4.72;;
16957;SDS011;8595;52.542;11.974;2023-09-30T01:53:03;15.65;;;4.32;;
16957;SDS011;8595;52.542;11.974;2023-09-30T01:55:31;17.80;;;5.07;;
16957;SDS011;8595;52.542;11.974;2023-09-30T01:57:59;13.18;;;4.72;;
16957;SDS011;8595;52.542;11.974;2023-09-30T02:00:26;13.45;;;4.57;;
16957;SDS011;8595;52.542;11.974;2023-09-30T02:02:54;15.85;;;5.22;;
16957;SDS011;8595;52.542;11.974;2023-09-30T02:05:21;17.58;;;4.32;;
16957;SDS011;8595;52.542;11.974;2023-09-30T02:07:48;12.98;;;5.50;;
16957;SDS011;8595;52.542;11.974;2023-09-30T02:10:16;15.48;;;5.05;;
16957;SDS011;8595;52.542;11.974;2023-09-30T02:12:43;20.25;;;5.53;;
16957;SDS011;8595;52.542;11.974;2023-09-30T02:15:12;19.88;;;5.28;;
16957;SDS011;8595;52.542;11.974;2023-09-30T02:17:39;14.50;;;5.13;;
16957;SDS011;8595;52.542;11.974;2023-09-30T02:20:10;17.67;;;5.45;;
16957;SDS011;8595;52.542;11.974;2023-09-30T02:22:41;13.48;;;4.80;;
16957;SDS011;8595;52.542;11.974;2023-09-30T02:25:09;19.45;;;5.70;;
16957;SDS011;8595;52.542;11.974;2023-09-30T02:27:37;12.95;;;5.75;;
16957;SDS011;8595;52.542;11.974;2023-09-30T02:30:07;20.77;;;5.28;;
16957;SDS011;8595;52.542;11.974;2023-09-30T02:32:37;17.23;;;5.75;;
16957;SDS011;8595;52.542;11.974;2023-09-30T02:35:05;16.65;;;5.75;;
16957;SDS011;8595;52.542;11.974;2023-09-30T02:37:32;22.48;;;5.75;;
16957;SDS011;8595;52.542;11.974;2023-09-30T02:40:01;20.80;;;5.18;;
16957;SDS011;8595;52.542;11.974;2023-09-30T02:42:30;21.38;;;5.95;;
16957;SDS011;8595;52.542;11.974;2023-09-30T02:44:59;12.98;;;5.63;;
16957;SDS011;8595;52.542;11.974;2023-09-30T02:47:27;20.38;;;5.43;;
16957;SDS011;8595;52.542;11.974;2023-09-30T02:49:56;17.60;;;5.57;;
16957;SDS011;8595;52.542;11.974;2023-09-30T02:52:23;18.75;;;5.60;;
16957;SDS011;8595;52.542;11.974;2023-09-30T02:54:50;16.80;;;5.25;;
16957;SDS011;8595;52.542;11.974;2023-09-30T02:57:17;15.02;;;5.70;;
16957;SDS011;8595;52.542;11.974;2023-09-30T02:59:44;14.60;;;4.78;;
16957;SDS011;8595;52.542;11.974;2023-09-30T03:02:11;17.10;;;5.30;;
16957;SDS011;8595;52.542;11.974;2023-09-30T03:04:38;15.00;;;5.93;;
16957;SDS011;8595;52.542;11.974;2023-09-30T03:07:06;12.70;;;5.28;;
16957;SDS011;8595;52.542;11.974;2023-09-30T03:09:33;19.15;;;5.60;;
16957;SDS011;8595;52.542;11.974;2023-09-30T03:12:00;13.95;;;5.60;;
16957;SDS011;8595;52.542;11.974;2023-09-30T03:14:29;14.52;;;5.53;;
16957;SDS011;8595;52.542;11.974;2023-09-30T03:16:56;14.93;;;4.88;;
16957;SDS011;8595;52.542;11.974;2023-09-30T03:19:24;15.85;;;5.38;;
16957;SDS011;8595;52.542;11.974;2023-09-30T03:21:51;12.95;;;5.05;;
16957;SDS011;8595;52.542;11.974;2023-09-30T03:24:19;15.90;;;5.47;;
16957;SDS011;8595;52.542;11.974;2023-09-30T03:26:46;16.58;;;5.95;;
16957;SDS011;8595;52.542;11.974;2023-09-30T03:29:13;14.50;;;5.72;;
16957;SDS011;8595;52.542;11.974;2023-09-30T03:31:40;13.13;;;5.05;;
16957;SDS011;8595;52.542;11.974;2023-09-30T03:34:06;20.17;;;5.38;;
16957;SDS011;8595;52.542;11.974;2023-09-30T03:36:33;16.65;;;5.40;;
16957;SDS011;8595;52.542;11.974;2023-09-30T03:39:00;15.88;;;5.68;;
16957;SDS011;8595;52.542;11.974;2023-09-30T03:41:32;17.45;;;5.60;;
16957;SDS011;8595;52.542;11.974;2023-09-30T03:44:00;16.60;;;6.30;;
16957;SDS011;8595;52.542;11.974;2023-09-30T03:46:28;16.42;;;6.00;;
16957;SDS011;8595;52.542;11.974;2023-09-30T03:48:55;20.10;;;5.47;;
16957;SDS011;8595;52.542;11.974;2023-09-30T03:51:22;18.42;;;5.97;;
16957;SDS011;8595;52.542;11.974;2023-09-30T03:53:50;12.52;;;5.30;;
16957;SDS011;8595;52.542;11.974;2023-09-30T03:56:17;16.77;;;5.43;;
16957;SDS011;8595;52.542;11.974;2023-09-30T03:58:45;15.55;;;5.25;;
16957;SDS011;8595;52.542;11.974;2023-09-30T04:01:13;14.35;;;5.05;;
16957;SDS011;8595;52.542;11.974;2023-09-30T04:03:41;19.08;;;5.55;;
16957;SDS011;8595;52.542;11.974;2023-09-30T04:06:09;19.48;;;6.82;;
16957;SDS011;8595;52.542;11.974;2023-09-30T04:08:36;16.75;;;5.47;;
16957;SDS011;8595;52.542;11.974;2023-09-30T04:11:03;19.35;;;5.50;;
16957;SDS011;8595;52.542;11.974;2023-09-30T04:13:30;19.38;;;5.90;;
16957;SDS011;8595;52.542;11.974;2023-09-30T04:15:57;17.75;;;6.00;;
16957;SDS011;8595;52.542;11.974;2023-09-30T04:18:24;11.73;;;5.30;;
16957;SDS011;8595;52.542;11.974;2023-09-30T04:20:52;14.43;;;5.40;;
16957;SDS011;8595;52.542;11.974;2023-09-30T04:23:19;17.23;;;6.00;;
16957;SDS011;8595;52.542;11.974;2023-09-30T04:25:47;11.68;;;5.15;;
16957;SDS011;8595;52.542;11.974;2023-09-30T04:28:14;17.45;;;4.97;;
16957;SDS011;8595;52.542;11.974;2023-09-30T04:30:46;16.88;;;5.97;;
16957;SDS011;8595;52.542;11.974;2023-09-30T04:33:16;16.58;;;4.90;;
16957;SDS011;8595;52.542;11.974;2023-09-30T04:35:43;21.60;;;5.97;;
16957;SDS011;8595;52.542;11.974;2023-09-30T04:38:10;16.08;;;5.25;;
16957;SDS011;8595;52.542;11.974;2023-09-30T04:40:38;17.85;;;5.78;;
16957;SDS011;8595;52.542;11.974;2023-09-30T04:43:05;19.20;;;5.45;;
16957;SDS011;8595;52.542;11.974;2023-09-30T04:45:32;15.52;;;5.22;;
16957;SDS011;8595;52.542;11.974;2023-09-30T04:47:58;30.05;;;6.00;;
16957;SDS011;8595;52.542;11.974;2023-09-30T04:50:28;18.13;;;5.10;;
16957;SDS011;8595;52.542;11.974;2023-09-30T04:52:55;13.23;;;5.25;;
16957;SDS011;8595;52.542;11.974;2023-09-30T04:55:22;16.15;;;5.47;;
16957;SDS011;8595;52.542;11.974;2023-09-30T04:57:49;19.25;;;6.15;;
16957;SDS011;8595;52.542;11.974;2023-09-30T05:00:17;16.13;;;5.15;;
16957;SDS011;8595;52.542;11.974;2023-09-30T05:02:49;16.73;;;5.82;;
16957;SDS011;8595;52.542;11.974;2023-09-30T05:05:17;17.15;;;5.47;;
16957;SDS011;8595;52.542;11.974;2023-09-30T05:07:46;24.05;;;5.93;;
16957;SDS011;8595;52.542;11.974;2023-09-30T05:10:14;17.08;;;4.93;;
16957;SDS011;8595;52.542;11.974;2023-09-30T05:12:42;17.48;;;5.07;;
16957;SDS011;8595;52.542;11.974;2023-09-30T05:15:11;16.95;;;5.35;;
16957;SDS011;8595;52.542;11.974;2023-09-30T05:17:40;14.55;;;4.95;;
16957;SDS011;8595;52.542;11.974;2023-09-30T05:20:09;25.42;;;5.95;;
16957;SDS011;8595;52.542;11.974;2023-09-30T05:22:37;17.58;;;6.18;;
16957;SDS011;8595;52.542;11.974;2023-09-30T05:25:07;17.10;;;5.13;;
16957;SDS011;8595;52.542;11.974;2023-09-30T05:27:34;16.00;;;4.85;;
16957;SDS011;8595;52.542;11.974;2023-09-30T05:30:01;17.08;;;5.18;;
16957;SDS011;8595;52.542;11.974;2023-09-30T05:32:28;16.08;;;5.30;;
16957;SDS011;8595;52.542;11.974;2023-09-30T05:34:55;19.10;;;5.25;;
16957;SDS011;8595;52.542;11.974;2023-09-30T05:37:23;18.23;;;5.18;;
16957;SDS011;8595;52.542;11.974;2023-09-30T05:39:51;16.63;;;5.05;;
16957;SDS011;8595;52.542;11.974;2023-09-30T05:42:19;16.45;;;5.55;;
16957;SDS011;8595;52.542;11.974;2023-09-30T05:44:47;16.42;;;5.75;;
16957;SDS011;8595;52.542;11.974;2023-09-30T05:47:14;15.18;;;5.65;;
16957;SDS011;8595;52.542;11.974;2023-09-30T05:49:41;16.02;;;4.88;;
16957;SDS011;8595;52.542;11.974;2023-09-30T05:52:09;16.75;;;5.50;;
16957;SDS011;8595;52.542;11.974;2023-09-30T05:54:37;19.83;;;5.65;;
16957;SDS011;8595;52.542;11.974;2023-09-30T05:57:04;16.08;;;6.50;;
16957;SDS011;8595;52.542;11.974;2023-09-30T05:59:32;14.02;;;5.10;;
16957;SDS011;8595;52.542;11.974;2023-09-30T06:01:59;20.02;;;5.88;;
16957;SDS011;8595;52.542;11.974;2023-09-30T06:04:27;16.23;;;5.78;;
16957;SDS011;8595;52.542;11.974;2023-09-30T06:06:55;18.27;;;6.03;;
16957;SDS011;8595;52.542;11.974;2023-09-30T06:09:23;17.05;;;6.40;;
16957;SDS011;8595;52.542;11.974;2023-09-30T06:11:50;15.35;;;5.70;;
16957;SDS011;8595;52.542;11.974;2023-09-30T06:14:17;14.00;;;5.35;;
16957;SDS011;8595;52.542;11.974;2023-09-30T06:16:45;17.15;;;5.55;;
16957;SDS011;8595;52.542;11.974;2023-09-30T06:19:12;15.68;;;5.22;;
16957;SDS011;8595;52.542;11.974;2023-09-30T06:21:39;16.52;;;6.10;;
16957;SDS011;8595;52.542;11.974;2023-09-30T06:24:07;17.48;;;5.82;;
16957;SDS011;8595;52.542;11.974;2023-09-30T06:26:35;15.23;;;5.78;;
16957;SDS011;8595;52.542;11.974;2023-09-30T06:29:02;14.63;;;5.22;;
16957;SDS011;8595;52.542;11.974;2023-09-30T06:31:31;20.25;;;5.07;;
16957;SDS011;8595;52.542;11.974;2023-09-30T06:34:00;23.63;;;5.38;;
16957;SDS011;8595;52.542;11.974;2023-09-30T06:36:27;12.35;;;4.53;;
16957;SDS011;8595;52.542;11.974;2023-09-30T06:38:54;16.52;;;5.22;;
16957;SDS011;8595;52.542;11.974;2023-09-30T06:41:21;14.82;;;4.95;;
16957;SDS011;8595;52.542;11.974;2023-09-30T06:43:48;14.15;;;5.15;;
16957;SDS011;8595;52.542;11.974;2023-09-30T06:46:16;12.00;;;4.80;;
16957;SDS011;8595;52.542;11.974;2023-09-30T06:48:43;18.50;;;5.50;;
16957;SDS011;8595;52.542;11.974;2023-09-30T06:51:13;15.43;;;4.55;;
16957;SDS011;8595;52.542;11.974;2023-09-30T06:53:42;16.80;;;4.97;;
16957;SDS011;8595;52.542;11.974;2023-09-30T06:56:10;15.70;;;5.28;;
16957;SDS011;8595;52.542;11.974;2023-09-30T06:58:37;17.20;;;5.97;;
16957;SDS011;8595;52.542;11.974;2023-09-30T07:01:04;18.42;;;5.03;;
16957;SDS011;8595;52.542;11.974;2023-09-30T07:03:31;17.42;;;5.13;;
16957;SDS011;8595;52.542;11.974;2023-09-30T07:05:58;21.13;;;5.88;;
16957;SDS011;8595;52.542;11.974;2023-09-30T07:08:28;21.77;;;5.93;;
16957;SDS011;8595;52.542;11.974;2023-09-30T07:10:56;16.60;;;5.28;;
16957;SDS011;8595;52.542;11.974;2023-09-30T07:13:22;16.13;;;4.88;;
16957;SDS011;8595;52.542;11.974;2023-09-30T07:15:49;14.75;;;5.45;;
16957;SDS011;8595;52.542;11.974;2023-09-30T07:18:16;12.50;;;4.97;;
16957;SDS011;8595;52.542;11.974;2023-09-30T07:20:44;13.25;;;5.55;;
16957;SDS011;8595;52.542;11.974;2023-09-30T07:23:11;14.57;;;4.82;;
16957;SDS011;8595;52.542;11.974;2023-09-30T07:25:40;18.25;;;5.43;;
16957;SDS011;8595;52.542;11.974;2023-09-30T07:28:08;16.42;;;5.30;;
16957;SDS011;8595;52.542;11.974;2023-09-30T07:30:37;18.13;;;5.53;;
16957;SDS011;8595;52.542;11.974;2023-09-30T07:33:04;15.52;;;5.07;;
16957;SDS011;8595;52.542;11.974;2023-09-30T07:35:31;16.23;;;5.60;;
16957;SDS011;8595;52.542;11.974;2023-09-30T07:37:58;14.80;;;5.25;;
16957;SDS011;8595;52.542;11.974;2023-09-30T07:40:25;15.95;;;5.50;;
16957;SDS011;8595;52.542;11.974;2023-09-30T07:42:54;18.80;;;5.28;;
16957;SDS011;8595;52.542;11.974;2023-09-30T07:45:21;14.68;;;4.57;;
16957;SDS011;8595;52.542;11.974;2023-09-30T07:47:48;14.80;;;4.75;;
16957;SDS011;8595;52.542;11.974;2023-09-30T07:50:16;19.67;;;5.35;;
16957;SDS011;8595;52.542;11.974;2023-09-30T07:52:43;11.05;;;4.20;;
16957;SDS011;8595;52.542;11.974;2023-09-30T07:55:11;16.55;;;4.85;;
16957;SDS011;8595;52.542;11.974;2023-09-30T07:57:40;16.52;;;4.95;;
16957;SDS011;8595;52.542;11.974;2023-09-30T08:00:10;12.98;;;4.30;;
16957;SDS011;8595;52.542;11.974;2023-09-30T08:02:40;12.85;;;4.72;;
16957;SDS011;8595;52.542;11.974;2023-09-30T08:05:08;20.35;;;5.45;;
16957;SDS011;8595;52.542;11.974;2023-09-30T08:07:36;15.15;;;5.00;;
16957;SDS011;8595;52.542;11.974;2023-09-30T08:10:03;13.05;;;4.53;;
16957;SDS011;8595;52.542;11.974;2023-09-30T08:12:31;15.90;;;5.30;;
16957;SDS011;8595;52.542;11.974;2023-09-30T08:14:58;16.17;;;4.57;;
16957;SDS011;8595;52.542;11.974;2023-09-30T08:17:29;11.05;;;4.07;;
16957;SDS011;8595;52.542;11.974;2023-09-30T08:19:56;10.25;;;4.28;;
16957;SDS011;8595;52.542;11.974;2023-09-30T08:22:22;15.05;;;4.65;;
16957;SDS011;8595;52.542;11.974;2023-09-30T08:24:52;16.10;;;4.45;;
16957;SDS011;8595;52.542;11.974;2023-09-30T08:27:19;15.63;;;3.97;;
16957;SDS011;8595;52.542;11.974;2023-09-30T08:29:46;10.27;;;4.28;;
16957;SDS011;8595;52.542;11.974;2023-09-30T08:32:13;14.30;;;4.18;;
16957;SDS011;8595;52.542;11.974;2023-09-30T08:34:41;13.02;;;4.22;;
16957;SDS011;8595;52.542;11.974;2023-09-30T08:37:09;14.02;;;3.85;;
16957;SDS011;8595;52.542;11.974;2023-09-30T08:39:37;17.10;;;4.18;;
16957;SDS011;8595;52.542;11.974;2023-09-30T08:42:05;15.68;;;3.78;;
16957;SDS011;8595;52.542;11.974;2023-09-30T08:44:36;10.82;;;3.38;;
16957;SDS011;8595;52.542;11.974;2023-09-30T08:47:05;10.32;;;3.42;;
16957;SDS011;8595;52.542;11.974;2023-09-30T08:49:32;17.48;;;3.78;;
16957;SDS011;8595;52.542;11.974;2023-09-30T08:52:04;14.80;;;4.00;;
16957;SDS011;8595;52.542;11.974;2023-09-30T08:54:32;11.88;;;3.75;;
16957;SDS011;8595;52.542;11.974;2023-09-30T08:56:59;12.52;;;3.60;;
16957;SDS011;8595;52.542;11.974;2023-09-30T08:59:28;15.02;;;3.47;;
16957;SDS011;8595;52.542;11.974;2023-09-30T09:01:55;11.75;;;3.75;;
16957;SDS011;8595;52.542;11.974;2023-09-30T09:04:24;13.00;;;3.45;;
16957;SDS011;8595;52.542;11.974;2023-09-30T09:06:52;17.48;;;3.65;;
16957;SDS011;8595;52.542;11.974;2023-09-30T09:09:21;13.68;;;3.60;;
16957;SDS011;8595;52.542;11.974;2023-09-30T09:11:48;8.35;;;3.15;;
16957;SDS011;8595;52.542;11.974;2023-09-30T09:14:15;10.88;;;3.22;;
16957;SDS011;8595;52.542;11.974;2023-09-30T09:16:52;13.45;;;3.67;;
16957;SDS011;8595;52.542;11.974;2023-09-30T09:19:20;11.15;;;3.33;;
16957;SDS011;8595;52.542;11.974;2023-09-30T09:21:53;10.38;;;3.53;;
16957;SDS011;8595;52.542;11.974;2023-09-30T09:24:30;12.63;;;3.38;;
16957;SDS011;8595;52.542;11.974;2023-09-30T09:27:03;10.43;;;3.58;;
16957;SDS011;8595;52.542;11.974;2023-09-30T09:29:32;13.02;;;3.45;;
16957;SDS011;8595;52.542;11.974;2023-09-30T09:32:06;10.77;;;2.95;;
16957;SDS011;8595;52.542;11.974;2023-09-30T09:34:34;10.50;;;3.38;;
16957;SDS011;8595;52.542;11.974;2023-09-30T09:37:01;13.85;;;3.75;;
16957;SDS011;8595;52.542;11.974;2023-09-30T09:39:42;9.82;;;3.30;;
16957;SDS011;8595;52.542;11.974;2023-09-30T09:42:23;15.10;;;4.10;;
16957;SDS011;8595;52.542;11.974;2023-09-30T09:44:51;8.38;;;3.22;;
16957;SDS011;8595;52.542;11.974;2023-09-30T09:47:20;13.35;;;3.50;;
16957;SDS011;8595;52.542;11.974;2023-09-30T09:49:48;9.25;;;3.03;;
16957;SDS011;8595;52.542;11.974;2023-09-30T09:52:16;7.88;;;2.90;;
16957;SDS011;8595;52.542;11.974;2023-09-30T09:54:46;10.25;;;2.83;;
16957;SDS011;8595;52.542;11.974;2023-09-30T09:57:14;8.70;;;2.88;;
16957;SDS011;8595;52.542;11.974;2023-09-30T09:59:43;12.13;;;2.90;;
16957;SDS011;8595;52.542;11.974;2023-09-30T10:02:12;10.98;;;2.95;;
16957;SDS011;8595;52.542;11.974;2023-09-30T10:04:40;9.82;;;3.42;;
16957;SDS011;8595;52.542;11.974;2023-09-30T10:07:09;8.80;;;3.05;;
16957;SDS011;8595;52.542;11.974;2023-09-30T10:09:39;10.85;;;3.47;;
16957;SDS011;8595;52.542;11.974;2023-09-30T10:12:12;13.68;;;3.28;;
16957;SDS011;8595;52.542;11.974;2023-09-30T10:14:41;12.40;;;3.33;;
16957;SDS011;8595;52.542;11.974;2023-09-30T10:17:09;8.50;;;2.60;;
16957;SDS011;8595;52.542;11.974;2023-09-30T10:19:36;10.05;;;2.88;;
16957;SDS011;8595;52.542;11.974;2023-09-30T10:22:22;11.05;;;3.13;;
16957;SDS011;8595;52.542;11.974;2023-09-30T10:24:50;9.90;;;2.90;;
16957;SDS011;8595;52.542;11.974;2023-09-30T10:27:30;9.70;;;2.80;;
16957;SDS011;8595;52.542;11.974;2023-09-30T10:30:05;14.65;;;3.35;;
16957;SDS011;8595;52.542;11.974;2023-09-30T10:35:44;8.85;;;2.85;;
16957;SDS011;8595;52.542;11.974;2023-09-30T10:41:07;13.00;;;2.63;;
16957;SDS011;8595;52.542;11.974;2023-09-30T10:43:36;12.05;;;2.75;;
16957;SDS011;8595;52.542;11.974;2023-09-30T10:51:58;7.65;;;2.53;;
16957;SDS011;8595;52.542;11.974;2023-09-30T10:54:26;12.48;;;2.50;;
16957;SDS011;8595;52.542;11.974;2023-09-30T10:56:54;19.35;;;3.13;;
16957;SDS011;8595;52.542;11.974;2023-09-30T10:59:23;9.85;;;2.60;;
16957;SDS011;8595;52.542;11.974;2023-09-30T11:01:51;8.68;;;2.40;;
16957;SDS011;8595;52.542;11.974;2023-09-30T11:04:18;10.35;;;2.60;;
16957;SDS011;8595;52.542;11.974;2023-09-30T11:06:45;9.43;;;2.20;;
16957;SDS011;8595;52.542;11.974;2023-09-30T11:09:15;8.90;;;2.42;;
16957;SDS011;8595;52.542;11.974;2023-09-30T11:11:42;7.18;;;2.25;;
16957;SDS011;8595;52.542;11.974;2023-09-30T11:14:20;13.90;;;2.83;;
16957;SDS011;8595;52.542;11.974;2023-09-30T11:16:50;7.78;;;2.40;;
16957;SDS011;8595;52.542;11.974;2023-09-30T11:19:18;15.00;;;3.75;;
16957;SDS011;8595;52.542;11.974;2023-09-30T11:21:46;9.93;;;2.85;;
16957;SDS011;8595;52.542;11.974;2023-09-30T11:24:14;9.55;;;2.83;;
16957;SDS011;8595;52.542;11.974;2023-09-30T11:26:42;10.68;;;2.50;;
16957;SDS011;8595;52.542;11.974;2023-09-30T11:29:10;7.85;;;2.85;;
16957;SDS011;8595;52.542;11.974;2023-09-30T11:31:40;11.63;;;2.67;;
16957;SDS011;8595;52.542;11.974;2023-09-30T11:34:08;11.38;;;2.83;;
16957;SDS011;8595;52.542;11.974;2023-09-30T11:36:37;13.00;;;2.22;;
16957;SDS011;8595;52.542;11.974;2023-09-30T11:39:05;17.60;;;3.08;;
16957;SDS011;8595;52.542;11.974;2023-09-30T11:41:35;11.38;;;2.15;;
16957;SDS011;8595;52.542;11.974;2023-09-30T11:44:05;12.80;;;2.85;;
16957;SDS011;8595;52.542;11.974;2023-09-30T11:46:47;7.95;;;2.05;;
16957;SDS011;8595;52.542;11.974;2023-09-30T11:49:27;9.02;;;3.03;;
16957;SDS011;8595;52.542;11.974;2023-09-30T11:51:55;7.13;;;2.63;;
16957;SDS011;8595;52.542;11.974;2023-09-30T11:54:28;6.20;;;2.80;;
16957;SDS011;8595;52.542;11.974;2023-09-30T11:56:55;8.65;;;2.47;;
16957;SDS011;8595;52.542;11.974;2023-09-30T11:59:22;8.27;;;2.85;;
16957;SDS011;8595;52.542;11.974;2023-09-30T12:01:50;10.27;;;2.55;;
16957;SDS011;8595;52.542;11.974;2023-09-30T12:04:18;7.53;;;2.67;;
16957;SDS011;8595;52.542;11.974;2023-09-30T12:06:45;14.68;;;2.92;;
16957;SDS011;8595;52.542;11.974;2023-09-30T12:09:13;12.30;;;3.40;;
16957;SDS011;8595;52.542;11.974;2023-09-30T12:11:41;7.10;;;2.53;;
16957;SDS011;8595;52.542;11.974;2023-09-30T12:14:09;5.82;;;2.38;;
16957;SDS011;8595;52.542;11.974;2023-09-30T12:16:37;9.98;;;2.50;;
16957;SDS011;8595;52.542;11.974;2023-09-30T12:19:06;9.27;;;2.65;;
16957;SDS011;8595;52.542;11.974;2023-09-30T12:21:33;8.25;;;2.75;;
16957;SDS011;8595;52.542;11.974;2023-09-30T12:24:02;6.82;;;2.50;;
16957;SDS011;8595;52.542;11.974;2023-09-30T12:26:30;6.15;;;3.13;;
16957;SDS011;8595;52.542;11.974;2023-09-30T12:28:57;9.43;;;2.97;;
16957;SDS011;8595;52.542;11.974;2023-09-30T12:31:24;9.48;;;2.90;;
16957;SDS011;8595;52.542;11.974;2023-09-30T12:33:51;7.05;;;2.63;;
16957;SDS011;8595;52.542;11.974;2023-09-30T12:36:20;9.70;;;2.75;;
16957;SDS011;8595;52.542;11.974;2023-09-30T12:38:48;5.65;;;2.20;;
16957;SDS011;8595;52.542;11.974;2023-09-30T12:41:15;6.95;;;2.85;;
16957;SDS011;8595;52.542;11.974;2023-09-30T12:43:44;7.05;;;2.70;;
16957;SDS011;8595;52.542;11.974;2023-09-30T12:46:11;10.82;;;2.97;;
16957;SDS011;8595;52.542;11.974;2023-09-30T12:48:38;6.50;;;2.88;;
16957;SDS011;8595;52.542;11.974;2023-09-30T12:51:05;8.98;;;3.05;;
16957;SDS011;8595;52.542;11.974;2023-09-30T12:53:35;15.30;;;3.05;;
16957;SDS011;8595;52.542;11.974;2023-09-30T12:56:02;4.60;;;2.47;;
16957;SDS011;8595;52.542;11.974;2023-09-30T12:58:29;8.07;;;3.50;;
16957;SDS011;8595;52.542;11.974;2023-09-30T13:00:56;7.00;;;3.13;;
16957;SDS011;8595;52.542;11.974;2023-09-30T13:03:23;5.25;;;2.53;;
16957;SDS011;8595;52.542;11.974;2023-09-30T13:05:50;5.90;;;2.70;;
16957;SDS011;8595;52.542;11.974;2023-09-30T13:08:17;12.00;;;2.78;;
16957;SDS011;8595;52.542;11.974;2023-09-30T13:10:45;7.05;;;2.28;;
16957;SDS011;8595;52.542;11.974;2023-09-30T13:13:15;6.68;;;2.38;;
16957;SDS011;8595;52.542;11.974;2023-09-30T13:15:42;7.15;;;2.80;;
16957;SDS011;8595;52.542;11.974;2023-09-30T13:18:09;5.78;;;3.28;;
16957;SDS011;8595;52.542;11.974;2023-09-30T13:20:36;7.65;;;3.17;;
16957;SDS011;8595;52.542;11.974;2023-09-30T13:23:03;8.18;;;2.88;;
16957;SDS011;8595;52.542;11.974;2023-09-30T13:25:30;6.13;;;2.83;;
16957;SDS011;8595;52.542;11.974;2023-09-30T13:27:58;7.13;;;2.55;;
16957;SDS011;8595;52.542;11.974;2023-09-30T13:30:25;6.95;;;2.45;;
16957;SDS011;8595;52.542;11.974;2023-09-30T13:32:51;8.60;;;2.58;;
16957;SDS011;8595;52.542;11.974;2023-09-30T13:35:18;8.95;;;3.05;;
16957;SDS011;8595;52.542;11.974;2023-09-30T13:37:45;8.25;;;3.20;;
16957;SDS011;8595;52.542;11.974;2023-09-30T13:40:12;5.80;;;2.53;;
16957;SDS011;8595;52.542;11.974;2023-09-30T13:42:40;7.00;;;2.30;;
16957;SDS011;8595;52.542;11.974;2023-09-30T13:45:09;9.73;;;2.33;;
16957;SDS011;8595;52.542;11.974;2023-09-30T13:47:36;9.55;;;2.67;;
16957;SDS011;8595;52.542;11.974;2023-09-30T13:50:04;8.43;;;2.75;;
16957;SDS011;8595;52.542;11.974;2023-09-30T13:52:32;5.78;;;2.25;;
16957;SDS011;8595;52.542;11.974;2023-09-30T13:54:59;9.75;;;2.53;;
16957;SDS011;8595;52.542;11.974;2023-09-30T13:57:27;7.25;;;2.33;;
16957;SDS011;8595;52.542;11.974;2023-09-30T13:59:54;5.88;;;2.30;;
16957;SDS011;8595;52.542;11.974;2023-09-30T14:02:22;5.60;;;2.38;;
16957;SDS011;8595;52.542;11.974;2023-09-30T14:04:49;6.93;;;2.38;;
16957;SDS011;8595;52.542;11.974;2023-09-30T14:07:16;7.53;;;2.50;;
16957;SDS011;8595;52.542;11.974;2023-09-30T14:09:44;8.13;;;2.72;;
16957;SDS011;8595;52.542;11.974;2023-09-30T14:12:11;6.55;;;2.20;;
16957;SDS011;8595;52.542;11.974;2023-09-30T14:14:37;6.15;;;2.50;;
16957;SDS011;8595;52.542;11.974;2023-09-30T14:17:04;5.93;;;2.15;;
16957;SDS011;8595;52.542;11.974;2023-09-30T14:19:36;7.03;;;1.90;;
16957;SDS011;8595;52.542;11.974;2023-09-30T14:22:05;3.42;;;1.95;;
16957;SDS011;8595;52.542;11.974;2023-09-30T14:24:33;8.63;;;2.55;;
16957;SDS011;8595;52.542;11.974;2023-09-30T14:27:00;6.57;;;2.03;;
16957;SDS011;8595;52.542;11.974;2023-09-30T14:29:28;7.90;;;2.30;;
16957;SDS011;8595;52.542;11.974;2023-09-30T14:31:55;5.95;;;2.50;;
16957;SDS011;8595;52.542;11.974;2023-09-30T14:34:22;4.95;;;2.03;;
16957;SDS011;8595;52.542;11.974;2023-09-30T14:36:51;7.85;;;2.60;;
16957;SDS011;8595;52.542;11.974;2023-09-30T14:39:17;7.28;;;3.17;;
16957;SDS011;8595;52.542;11.974;2023-09-30T14:41:45;4.82;;;2.22;;
16957;SDS011;8595;52.542;11.974;2023-09-30T14:44:12;12.27;;;2.47;;
16957;SDS011;8595;52.542;11.974;2023-09-30T14:46:39;4.78;;;2.13;;
16957;SDS011;8595;52.542;11.974;2023-09-30T14:49:06;4.88;;;2.60;;
16957;SDS011;8595;52.542;11.974;2023-09-30T14:51:35;4.75;;;1.95;;
16957;SDS011;8595;52.542;11.974;2023-09-30T14:54:04;4.55;;;1.80;;
16957;SDS011;8595;52.542;11.974;2023-09-30T14:56:31;6.72;;;2.72;;